createdAt,value
2022-08-29T00:02:06.433Z,1.15
2022-08-29T00:04:35.978Z,1.10
2022-08-29T00:07:03.913Z,1.85
2022-08-29T00:09:31.562Z,1.15
2022-08-29T00:11:59.086Z,1.23
2022-08-29T00:14:26.863Z,1.30
2022-08-29T00:16:55.066Z,0.90
2022-08-29T00:19:22.753Z,2.50
2022-08-29T00:21:50.310Z,2.10
2022-08-29T00:24:17.940Z,1.25
2022-08-29T00:26:45.441Z,1.63
2022-08-29T00:29:13.019Z,1.33
2022-08-29T00:31:40.694Z,2.15
2022-08-29T00:34:08.230Z,1.77
2022-08-29T00:36:36.221Z,1.10
2022-08-29T00:39:05.103Z,1.23
2022-08-29T00:41:36.883Z,1.58
2022-08-29T00:44:06.028Z,2.55
2022-08-29T00:46:43.040Z,1.40
2022-08-29T00:49:28.631Z,2.22
2022-08-29T00:52:00.134Z,0.80
2022-08-29T00:54:28.159Z,0.90
2022-08-29T00:56:56.404Z,1.38
2022-08-29T00:59:31.985Z,1.08
2022-08-29T01:02:00.364Z,4.78
2022-08-29T01:04:28.010Z,2.95
2022-08-29T01:06:55.740Z,0.85
2022-08-29T01:09:24.728Z,2.75
2022-08-29T01:12:11.851Z,2.10
2022-08-29T01:14:41.582Z,2.42
2022-08-29T01:17:10.135Z,1.17
2022-08-29T01:19:41.357Z,0.80
2022-08-29T01:22:34.996Z,1.40
2022-08-29T01:25:13.923Z,1.60
2022-08-29T01:27:46.620Z,0.95
2022-08-29T01:30:15.276Z,2.67
2022-08-29T01:32:43.105Z,0.95
2022-08-29T01:35:11.265Z,0.70
2022-08-29T01:37:41.932Z,0.77
2022-08-29T01:40:11.005Z,0.82
2022-08-29T01:42:38.609Z,0.90
2022-08-29T01:45:09.954Z,2.60
2022-08-29T01:47:39.231Z,1.35
2022-08-29T01:50:13.163Z,2.33
2022-08-29T01:52:42.882Z,1.05
2022-08-29T01:55:10.562Z,1.45
2022-08-29T01:57:39.419Z,1.08
2022-08-29T02:00:10.439Z,0.90
2022-08-29T02:02:39.312Z,2.15
2022-08-29T02:05:09.589Z,1.65
2022-08-29T02:07:37.312Z,1.20
2022-08-29T02:10:06.515Z,1.05
2022-08-29T02:12:35.030Z,1.45
2022-08-29T02:15:02.648Z,0.85
2022-08-29T02:17:30.224Z,0.77
2022-08-29T02:19:58.487Z,2.53
2022-08-29T02:22:26.007Z,1.67
2022-08-29T02:24:53.575Z,0.80
2022-08-29T02:27:21.278Z,0.80
2022-08-29T02:29:48.873Z,1.45
2022-08-29T02:32:16.656Z,1.23
2022-08-29T02:34:48.558Z,1.40
2022-08-29T02:37:16.919Z,1.42
2022-08-29T02:39:44.562Z,1.48
2022-08-29T02:42:12.094Z,1.13
2022-08-29T02:44:39.609Z,1.88
2022-08-29T02:47:09.403Z,1.00
2022-08-29T02:49:37.226Z,0.77
2022-08-29T02:52:06.800Z,1.45
2022-08-29T02:54:34.952Z,0.90
2022-08-29T02:57:02.577Z,1.17
2022-08-29T02:59:30.140Z,3.30
2022-08-29T03:01:57.863Z,0.80
2022-08-29T03:04:25.370Z,0.70
2022-08-29T03:06:53.602Z,1.25
2022-08-29T03:09:21.142Z,1.50
2022-08-29T03:11:48.613Z,1.00
2022-08-29T03:14:16.256Z,2.58
2022-08-29T03:16:43.826Z,1.20
2022-08-29T03:19:11.404Z,1.60
2022-08-29T03:21:38.907Z,0.80
2022-08-29T03:24:06.620Z,0.95
2022-08-29T03:26:34.099Z,1.23
2022-08-29T03:29:01.737Z,1.83
2022-08-29T03:31:29.766Z,1.52
2022-08-29T03:33:57.440Z,1.63
2022-08-29T03:36:27.747Z,1.42
2022-08-29T03:38:55.848Z,0.85
2022-08-29T03:41:25.886Z,0.85
2022-08-29T03:43:59.010Z,0.93
2022-08-29T03:46:27.499Z,1.33
2022-08-29T03:48:55.350Z,0.90
2022-08-29T03:51:22.951Z,1.15
2022-08-29T03:53:52.609Z,0.80
2022-08-29T03:56:20.786Z,1.10
2022-08-29T03:58:52.763Z,0.88
2022-08-29T04:01:24.779Z,2.78
2022-08-29T04:03:53.253Z,1.75
2022-08-29T04:06:22.479Z,1.00
2022-08-29T04:08:52.027Z,1.23
2022-08-29T04:11:20.642Z,1.85
2022-08-29T04:13:48.681Z,1.10
2022-08-29T04:16:19.798Z,0.90
2022-08-29T04:18:47.571Z,1.38
2022-08-29T04:21:15.626Z,0.98
2022-08-29T04:23:43.386Z,1.65
2022-08-29T04:26:35.955Z,3.03
2022-08-29T04:29:06.123Z,2.67
2022-08-29T04:31:34.748Z,1.98
2022-08-29T04:34:03.694Z,2.75
2022-08-29T04:36:31.260Z,0.80
2022-08-29T04:38:58.797Z,1.38
2022-08-29T04:41:26.480Z,0.90
2022-08-29T04:43:54.024Z,2.40
2022-08-29T04:46:23.920Z,1.35
2022-08-29T04:48:53.546Z,0.93
2022-08-29T04:51:21.899Z,1.85
2022-08-29T04:53:51.565Z,1.45
2022-08-29T04:56:20.587Z,1.13
2022-08-29T04:58:50.544Z,2.72
2022-08-29T05:01:21.328Z,1.45
2022-08-29T05:03:49.327Z,0.80
2022-08-29T05:06:19.743Z,1.58
2022-08-29T05:08:58.917Z,2.22
2022-08-29T05:11:28.966Z,1.30
2022-08-29T05:13:57.016Z,1.85
2022-08-29T05:16:24.654Z,2.35
2022-08-29T05:18:52.495Z,0.90
2022-08-29T05:21:27.272Z,1.10
2022-08-29T05:23:56.693Z,0.90
2022-08-29T05:26:29.302Z,1.05
2022-08-29T05:28:56.963Z,0.98
2022-08-29T05:31:24.889Z,2.70
2022-08-29T05:33:52.538Z,2.35
2022-08-29T05:36:20.253Z,2.53
2022-08-29T05:38:47.870Z,1.00
2022-08-29T05:41:17.016Z,1.42
2022-08-29T05:43:44.651Z,0.82
2022-08-29T05:46:12.235Z,2.25
2022-08-29T05:48:42.351Z,3.17
2022-08-29T05:51:20.538Z,1.50
2022-08-29T05:53:48.405Z,1.38
2022-08-29T05:56:25.103Z,0.88
2022-08-29T05:58:53.740Z,1.30
2022-08-29T06:01:32.731Z,1.15
2022-08-29T06:04:01.480Z,3.05
2022-08-29T06:06:29.822Z,1.55
2022-08-29T06:08:58.293Z,1.58
2022-08-29T06:11:29.119Z,1.35
2022-08-29T06:13:57.046Z,1.65
2022-08-29T06:16:26.314Z,1.35
2022-08-29T06:18:54.012Z,4.07
2022-08-29T06:21:21.799Z,3.00
2022-08-29T06:23:49.915Z,1.30
2022-08-29T06:26:19.014Z,2.00
2022-08-29T06:28:47.185Z,1.75
2022-08-29T06:31:28.130Z,1.55
2022-08-29T06:33:58.555Z,0.95
2022-08-29T06:36:28.294Z,1.60
2022-08-29T06:39:01.280Z,1.10
2022-08-29T06:41:29.999Z,1.60
2022-08-29T06:44:00.494Z,1.52
2022-08-29T06:46:31.388Z,1.10
2022-08-29T06:49:01.110Z,2.17
2022-08-29T06:51:33.061Z,1.42
2022-08-29T06:54:07.133Z,2.42
2022-08-29T06:56:36.699Z,1.05
2022-08-29T06:59:06.179Z,1.35
2022-08-29T07:01:34.585Z,2.30
2022-08-29T07:04:03.307Z,1.00
2022-08-29T07:06:32.645Z,1.13
2022-08-29T07:09:00.568Z,0.70
2022-08-29T07:11:30.390Z,2.78
2022-08-29T07:14:00.549Z,8.25
2022-08-29T07:16:29.482Z,3.33
2022-08-29T07:18:57.041Z,3.20
2022-08-29T07:21:26.290Z,4.22
2022-08-29T07:23:55.466Z,1.83
2022-08-29T07:26:26.712Z,1.33
2022-08-29T07:28:57.253Z,2.38
2022-08-29T07:31:25.770Z,2.58
2022-08-29T07:34:02.233Z,2.63
2022-08-29T07:36:34.394Z,1.20
2022-08-29T07:39:06.413Z,1.55
2022-08-29T07:41:34.111Z,1.70
2022-08-29T07:44:01.752Z,1.15
2022-08-29T07:46:29.574Z,2.60
2022-08-29T07:48:59.204Z,1.00
2022-08-29T07:51:28.044Z,2.72
2022-08-29T07:53:56.637Z,1.15
2022-08-29T07:56:28.026Z,2.15
2022-08-29T07:58:59.371Z,1.65
2022-08-29T08:01:27.880Z,2.65
2022-08-29T08:03:55.724Z,1.15
2022-08-29T08:06:27.109Z,2.03
2022-08-29T08:08:56.216Z,1.38
2022-08-29T08:11:25.075Z,2.45
2022-08-29T08:13:54.654Z,1.40
2022-08-29T08:16:24.173Z,1.25
2022-08-29T08:18:52.875Z,1.25
2022-08-29T08:21:21.337Z,2.33
2022-08-29T08:23:48.930Z,2.85
2022-08-29T08:26:17.333Z,2.33
2022-08-29T08:28:44.931Z,0.98
2022-08-29T08:31:15.040Z,1.45
2022-08-29T08:33:44.880Z,1.98
2022-08-29T08:36:20.159Z,1.10
2022-08-29T08:38:48.843Z,0.93
2022-08-29T08:41:51.046Z,1.58
2022-08-29T08:44:24.938Z,2.30
2022-08-29T08:46:55.670Z,3.03
2022-08-29T08:49:39.746Z,1.55
2022-08-29T08:52:16.720Z,2.28
2022-08-29T08:54:53.206Z,1.40
2022-08-29T08:57:22.733Z,1.98
2022-08-29T08:59:58.667Z,1.40
2022-08-29T09:05:48.540Z,1.23
2022-08-29T09:08:41.207Z,2.83
2022-08-29T09:11:23.536Z,1.73
2022-08-29T09:14:00.025Z,1.33
2022-08-29T09:16:37.802Z,1.75
2022-08-29T09:19:09.480Z,1.67
2022-08-29T09:22:14.408Z,1.50
2022-08-29T09:24:50.160Z,5.80
2022-08-29T09:27:23.388Z,2.65
2022-08-29T09:30:01.357Z,1.65
2022-08-29T09:32:29.077Z,0.80
2022-08-29T09:35:08.430Z,0.88
2022-08-29T09:37:36.858Z,1.55
2022-08-29T09:40:16.615Z,1.48
2022-08-29T09:42:52.044Z,1.52
2022-08-29T09:45:25.203Z,1.20
2022-08-29T09:48:10.190Z,0.70
2022-08-29T09:50:38.253Z,1.15
2022-08-29T09:53:10.080Z,2.30
2022-08-29T09:55:52.497Z,0.75
2022-08-29T09:58:20.099Z,0.70
2022-08-29T10:01:11.831Z,0.73
2022-08-29T10:03:53.766Z,1.92
2022-08-29T10:06:24.325Z,3.03
2022-08-29T10:09:13.300Z,0.80
2022-08-29T10:12:00.629Z,1.63
2022-08-29T10:14:35.524Z,0.77
2022-08-29T10:17:47.449Z,0.82
2022-08-29T10:20:15.246Z,0.80
2022-08-29T10:22:52.308Z,0.80
2022-08-29T10:25:29.256Z,0.85
2022-08-29T10:28:17.063Z,1.27
2022-08-29T10:31:00.983Z,0.70
2022-08-29T10:34:01.753Z,0.75
2022-08-29T10:36:33.336Z,0.50
2022-08-29T10:39:27.001Z,0.50
2022-08-29T10:42:14.305Z,0.85
2022-08-29T10:44:48.057Z,2.13
2022-08-29T10:47:40.669Z,0.50
2022-08-29T10:50:43.071Z,0.75
2022-08-29T10:53:27.797Z,1.73
2022-08-29T10:56:06.907Z,0.70
2022-08-29T10:59:09.247Z,0.70
2022-08-29T11:01:56.217Z,1.10
2022-08-29T11:04:38.189Z,0.65
2022-08-29T11:07:16.535Z,0.80
2022-08-29T11:10:17.755Z,1.17
2022-08-29T11:12:45.421Z,0.82
2022-08-29T11:15:18.743Z,0.70
2022-08-29T11:17:53.915Z,5.97
2022-08-29T11:20:26.856Z,1.50
2022-08-29T11:23:26.619Z,2.05
2022-08-29T11:25:55.299Z,1.60
2022-08-29T11:28:47.350Z,2.00
2022-08-29T11:31:31.718Z,1.00
2022-08-29T11:34:08.538Z,1.55
2022-08-29T11:36:38.827Z,2.65
2022-08-29T11:39:15.497Z,2.20
2022-08-29T11:41:49.381Z,1.98
2022-08-29T11:44:26.834Z,1.23
2022-08-29T11:46:56.591Z,1.65
2022-08-29T11:49:30.602Z,0.68
2022-08-29T11:52:13.058Z,1.02
2022-08-29T11:54:43.457Z,1.40
2022-08-29T11:57:11.069Z,2.85
2022-08-29T11:59:54.706Z,3.03
2022-08-29T12:02:28.439Z,2.13
2022-08-29T12:05:06.574Z,2.58
2022-08-29T12:07:40.064Z,1.15
2022-08-29T12:10:29.583Z,1.55
2022-08-29T12:13:01.729Z,2.95
2022-08-29T12:15:38.215Z,1.58
2022-08-29T12:18:13.533Z,1.65
2022-08-29T12:20:42.186Z,0.85
2022-08-29T12:23:12.789Z,1.25
2022-08-29T12:25:43.420Z,0.77
2022-08-29T12:28:23.967Z,2.28
2022-08-29T12:31:07.386Z,0.68
2022-08-29T12:33:58.811Z,1.65
2022-08-29T12:37:01.661Z,0.50
2022-08-29T12:39:35.259Z,0.60
2022-08-29T12:42:24.561Z,0.40
2022-08-29T12:45:02.578Z,2.03
2022-08-29T12:47:46.123Z,1.15
2022-08-29T12:50:18.728Z,2.90
2022-08-29T12:53:15.644Z,2.15
2022-08-29T12:55:46.382Z,2.72
2022-08-29T12:58:29.628Z,2.80
2022-08-29T13:00:57.750Z,0.70
2022-08-29T13:03:25.441Z,1.75
2022-08-29T13:06:04.702Z,7.45
2022-08-29T13:08:37.279Z,4.05
2022-08-29T13:11:11.735Z,4.63
2022-08-29T13:13:39.423Z,13.48
2022-08-29T13:16:09.255Z,9.38
2022-08-29T13:18:49.129Z,13.25
2022-08-29T13:21:24.682Z,11.80
2022-08-29T13:24:12.269Z,10.00
2022-08-29T13:26:50.639Z,8.98
2022-08-29T13:29:42.022Z,8.13
2022-08-29T13:32:23.772Z,5.28
2022-08-29T13:35:06.354Z,2.85
2022-08-29T13:37:38.213Z,1.52
2022-08-29T13:40:27.734Z,1.92
2022-08-29T13:42:55.945Z,1.00
2022-08-29T13:45:25.294Z,1.83
2022-08-29T13:48:15.275Z,2.90
2022-08-29T13:50:42.912Z,1.75
2022-08-29T13:53:10.479Z,2.25
2022-08-29T13:55:40.731Z,0.95
2022-08-29T13:58:10.957Z,3.10
2022-08-29T14:00:38.658Z,5.60
2022-08-29T14:03:07.580Z,4.13
2022-08-29T14:05:36.723Z,3.17
2022-08-29T14:08:05.879Z,2.33
2022-08-29T14:10:33.462Z,3.08
2022-08-29T14:13:01.935Z,2.25
2022-08-29T14:15:29.631Z,2.05
2022-08-29T14:17:57.438Z,1.67
2022-08-29T14:20:25.529Z,2.25
2022-08-29T14:22:53.136Z,2.25
2022-08-29T14:25:20.789Z,2.88
2022-08-29T14:27:49.065Z,4.20
2022-08-29T14:30:20.258Z,1.70
2022-08-29T14:32:47.832Z,2.35
2022-08-29T14:35:25.822Z,3.25
2022-08-29T14:37:55.446Z,3.22
2022-08-29T14:40:25.768Z,2.65
2022-08-29T14:42:57.394Z,2.80
2022-08-29T14:45:25.658Z,3.42
2022-08-29T14:47:53.315Z,2.75
2022-08-29T14:50:21.752Z,3.08
2022-08-29T14:52:49.809Z,1.52
2022-08-29T14:55:17.849Z,3.60
2022-08-29T14:57:45.480Z,1.95
2022-08-29T15:00:19.682Z,2.17
2022-08-29T15:02:47.543Z,2.83
2022-08-29T15:05:15.371Z,1.33
2022-08-29T15:07:44.004Z,2.95
2022-08-29T15:10:15.190Z,2.42
2022-08-29T15:12:42.753Z,3.58
2022-08-29T15:15:11.450Z,1.85
2022-08-29T15:17:39.268Z,2.42
2022-08-29T15:22:56.015Z,2.15
2022-08-29T15:25:24.163Z,3.75
2022-08-29T15:27:51.757Z,2.35
2022-08-29T15:30:23.416Z,2.28
2022-08-29T15:32:52.248Z,2.92
2022-08-29T15:35:19.917Z,3.92
2022-08-29T15:37:47.444Z,3.58
2022-08-29T15:40:15.297Z,4.28
2022-08-29T15:42:42.999Z,2.72
2022-08-29T15:45:11.408Z,2.85
2022-08-29T15:47:40.121Z,1.77
2022-08-29T15:50:14.127Z,1.85
2022-08-29T15:52:41.846Z,1.50
2022-08-29T15:55:09.632Z,2.20
2022-08-29T15:57:40.234Z,4.78
2022-08-29T16:00:30.304Z,1.27
2022-08-29T16:03:02.801Z,1.08
2022-08-29T16:05:31.831Z,1.10
2022-08-29T16:07:59.599Z,2.72
2022-08-29T16:10:27.305Z,2.42
2022-08-29T16:12:54.883Z,1.77
2022-08-29T16:15:23.144Z,0.98
2022-08-29T16:17:51.389Z,0.98
2022-08-29T16:20:18.996Z,0.93
2022-08-29T16:22:46.504Z,0.80
2022-08-29T16:25:14.757Z,0.75
2022-08-29T16:27:42.696Z,1.67
2022-08-29T16:30:10.729Z,2.42
2022-08-29T16:32:39.357Z,1.20
2022-08-29T16:35:07.830Z,0.80
2022-08-29T16:37:35.656Z,1.30
2022-08-29T16:40:05.369Z,0.77
2022-08-29T16:42:34.204Z,0.50
2022-08-29T16:45:01.771Z,1.42
2022-08-29T16:47:29.388Z,0.80
2022-08-29T16:49:56.994Z,1.33
2022-08-29T16:52:24.598Z,1.20
2022-08-29T16:54:53.904Z,0.75
2022-08-29T16:57:22.421Z,0.93
2022-08-29T16:59:50.028Z,1.63
2022-08-29T17:02:17.743Z,0.65
2022-08-29T17:04:46.954Z,1.05
2022-08-29T17:07:14.705Z,3.55
2022-08-29T17:09:42.195Z,0.80
2022-08-29T17:12:09.953Z,1.30
2022-08-29T17:14:37.869Z,0.88
2022-08-29T17:17:05.908Z,2.22
2022-08-29T17:19:34.243Z,1.20
2022-08-29T17:22:01.818Z,1.75
2022-08-29T17:24:29.372Z,1.00
2022-08-29T17:26:57.669Z,1.50
2022-08-29T17:29:25.262Z,1.63
2022-08-29T17:31:52.939Z,0.90
2022-08-29T17:34:20.720Z,0.85
2022-08-29T17:36:49.757Z,1.63
2022-08-29T17:39:17.502Z,1.23
2022-08-29T17:41:52.171Z,0.75
2022-08-29T17:44:21.447Z,1.63
2022-08-29T17:46:49.225Z,1.90
2022-08-29T17:49:16.994Z,0.60
2022-08-29T17:51:44.858Z,1.65
2022-08-29T17:54:23.988Z,1.10
2022-08-29T17:56:57.644Z,1.17
2022-08-29T17:59:27.628Z,0.95
2022-08-29T18:01:55.844Z,1.05
2022-08-29T18:04:24.402Z,1.67
2022-08-29T18:06:52.363Z,1.75
2022-08-29T18:09:21.343Z,0.90
2022-08-29T18:11:50.749Z,1.08
2022-08-29T18:14:20.608Z,2.17
2022-08-29T18:16:48.194Z,1.98
2022-08-29T18:19:15.878Z,1.77
2022-08-29T18:21:44.526Z,1.27
2022-08-29T18:24:14.006Z,1.00
2022-08-29T18:26:43.899Z,1.30
2022-08-29T18:29:11.613Z,0.80
2022-08-29T18:31:41.192Z,1.67
2022-08-29T18:34:11.024Z,0.63
2022-08-29T18:36:41.168Z,1.95
2022-08-29T18:39:09.592Z,0.70
2022-08-29T18:41:37.165Z,2.53
2022-08-29T18:44:05.128Z,0.98
2022-08-29T18:46:32.808Z,0.75
2022-08-29T18:49:00.605Z,1.17
2022-08-29T18:51:28.584Z,1.00
2022-08-29T18:53:57.050Z,0.70
2022-08-29T18:56:25.172Z,0.65
2022-08-29T18:58:58.631Z,1.05
2022-08-29T19:01:29.555Z,0.52
2022-08-29T19:03:58.904Z,0.82
2022-08-29T19:06:27.515Z,1.90
2022-08-29T19:08:56.625Z,1.67
2022-08-29T19:11:25.063Z,0.70
2022-08-29T19:13:52.955Z,1.52
2022-08-29T19:16:22.458Z,0.85
2022-08-29T19:18:50.818Z,4.00
2022-08-29T19:21:18.805Z,1.30
2022-08-29T19:23:52.926Z,1.25
2022-08-29T19:26:29.693Z,2.75
2022-08-29T19:28:59.621Z,1.50
2022-08-29T19:31:29.191Z,0.90
2022-08-29T19:33:57.850Z,1.55
2022-08-29T19:36:25.866Z,2.78
2022-08-29T19:38:53.713Z,0.98
2022-08-29T19:41:21.387Z,1.35
2022-08-29T19:43:49.527Z,0.68
2022-08-29T19:46:20.752Z,1.33
2022-08-29T19:48:51.234Z,1.08
2022-08-29T19:51:22.117Z,2.10
2022-08-29T19:53:54.000Z,1.55
2022-08-29T19:56:21.510Z,1.05
2022-08-29T19:58:49.455Z,1.17
2022-08-29T20:01:18.365Z,1.02
2022-08-29T20:03:46.071Z,1.17
2022-08-29T20:06:13.670Z,1.20
2022-08-29T20:08:45.491Z,1.00
2022-08-29T20:11:19.056Z,0.80
2022-08-29T20:13:50.566Z,1.00
2022-08-29T20:16:22.566Z,0.80
2022-08-29T20:18:50.882Z,0.60
2022-08-29T20:21:19.515Z,0.75
2022-08-29T20:23:49.454Z,0.82
2022-08-29T20:26:22.475Z,0.63
2022-08-29T20:28:51.965Z,0.75
2022-08-29T20:31:20.364Z,1.35
2022-08-29T20:33:48.881Z,0.57
2022-08-29T20:36:38.807Z,1.10
2022-08-29T20:39:08.896Z,0.65
2022-08-29T20:41:36.825Z,1.50
2022-08-29T20:44:09.994Z,1.65
2022-08-29T20:46:40.607Z,1.20
2022-08-29T20:49:14.217Z,1.15
2022-08-29T20:51:44.824Z,0.90
2022-08-29T20:54:13.604Z,1.42
2022-08-29T20:56:41.209Z,0.90
2022-08-29T20:59:09.295Z,1.05
2022-08-29T21:01:36.918Z,1.20
2022-08-29T21:04:25.177Z,0.80
2022-08-29T21:07:05.088Z,1.58
2022-08-29T21:09:33.420Z,1.75
2022-08-29T21:12:01.003Z,1.08
2022-08-29T21:14:28.984Z,0.70
2022-08-29T21:16:57.623Z,0.57
2022-08-29T21:19:29.915Z,1.05
2022-08-29T21:21:59.709Z,1.02
2022-08-29T21:24:28.290Z,1.42
2022-08-29T21:26:56.675Z,1.85
2022-08-29T21:29:24.736Z,1.15
2022-08-29T21:31:54.012Z,1.05
2022-08-29T21:34:23.297Z,2.15
2022-08-29T21:36:51.059Z,1.08
2022-08-29T21:39:19.746Z,1.20
2022-08-29T21:41:57.648Z,1.13
2022-08-29T21:44:26.049Z,4.22
2022-08-29T21:46:54.170Z,1.48
2022-08-29T21:49:22.371Z,1.77
2022-08-29T21:51:50.306Z,0.80
2022-08-29T21:54:18.249Z,1.05
2022-08-29T21:56:46.575Z,0.50
2022-08-29T21:59:15.760Z,1.45
2022-08-29T22:01:45.674Z,1.63
2022-08-29T22:04:19.132Z,1.23
2022-08-29T22:06:55.559Z,0.77
2022-08-29T22:09:23.504Z,1.15
2022-08-29T22:11:51.978Z,1.08
2022-08-29T22:14:19.640Z,0.60
2022-08-29T22:16:47.467Z,0.80
2022-08-29T22:19:17.041Z,0.60
2022-08-29T22:21:48.179Z,3.67
2022-08-29T22:24:18.227Z,1.15
2022-08-29T22:26:47.030Z,2.15
2022-08-29T22:29:16.089Z,1.00
2022-08-29T22:31:45.433Z,0.60
2022-08-29T22:34:15.404Z,0.90
2022-08-29T22:36:43.688Z,0.93
2022-08-29T22:39:11.556Z,0.85
2022-08-29T22:41:39.247Z,0.70
2022-08-29T22:44:47.117Z,0.63
2022-08-29T22:46:56.386Z,1.02
2022-08-29T22:49:25.500Z,0.90
2022-08-29T22:52:01.356Z,0.80
2022-08-29T22:54:34.982Z,0.70
2022-08-29T22:57:05.142Z,0.75
2022-08-29T22:59:33.901Z,1.10
2022-08-29T23:02:01.963Z,0.70
2022-08-29T23:04:30.218Z,1.58
2022-08-29T23:06:58.267Z,0.82
2022-08-29T23:09:25.983Z,1.20
2022-08-29T23:11:53.889Z,0.85
2022-08-29T23:14:22.425Z,1.00
2022-08-29T23:16:50.491Z,0.82
2022-08-29T23:19:18.661Z,2.25
2022-08-29T23:21:46.183Z,1.90
2022-08-29T23:24:14.293Z,2.33
2022-08-29T23:26:42.868Z,0.90
2022-08-29T23:29:10.508Z,0.60
2022-08-29T23:31:38.100Z,0.77
2022-08-29T23:34:07.472Z,0.95
2022-08-29T23:36:35.082Z,1.58
2022-08-29T23:39:06.472Z,1.23
2022-08-29T23:41:34.753Z,2.15
2022-08-29T23:44:02.581Z,1.10
2022-08-29T23:46:30.190Z,1.48
2022-08-29T23:48:58.457Z,0.95
2022-08-29T23:51:26.001Z,2.17
2022-08-29T23:53:53.570Z,0.75
2022-08-29T23:56:22.495Z,1.40
2022-08-29T23:58:50.424Z,0.88
